Flight Track Log - Related Links

Times and Time Zones

All times are in EDT time to prevent confusion due to time zone crossing. See the EJA935 flight status page for this flight to view local times or setup timezone preferences in your user account.

Time Position Orientation Groundspeed Altitude Reporting Facility
EDT Latitude Longitude Course Direction KTS MPH feet Rate Location/Type
Wed 03:40:38 PM 40.8167 -74.1333 252° West 204 235 1,600  Level New York TRACON
Wed 03:41:38 PM 40.8000 -74.2000 252° West 193 222 4,000 2,900 Climbing New York TRACON
Wed 03:42:38 PM 40.8000 -74.2667 270° West 228 262 7,400 3,150 Climbing New York TRACON
Wed 03:43:38 PM 40.8000 -74.3667 270° West 275 316 10,300 2,250 Climbing New York TRACON
Wed 03:44:38 PM 40.8167 -74.4833 281° West 348 400 11,900 1,750 Climbing New York TRACON
Wed 03:45:38 PM 40.8167 -74.6167 270° West 352 405 13,800 1,721 Climbing New York TRACON
Wed 03:46:40 PM 40.8078 -74.7300 264° West 335 386 15,400 1,317 Climbing New York Center
Wed 03:47:41 PM 40.8069 -74.8725 270° West 347 399 16,500 1,041 Climbing New York Center
Wed 03:48:41 PM 40.8067 -75.0039 270° West 357 411 17,500 800 Climbing New York Center
Wed 03:49:41 PM 40.8019 -75.1269 267° West 371 427 18,100 814 Climbing New York Center
Wed 03:50:39 PM 40.7783 -75.2597 257° West 371 427 19,100 966 Climbing New York Center
Wed 03:51:39 PM 40.7361 -75.3858 246° West 371 427 20,000 942 Climbing New York Center
Wed 03:52:40 PM 40.6914 -75.5114 245° Southwest 383 441 21,000 984 Climbing New York Center
Wed 03:53:41 PM 40.6486 -75.6397 246° West 388 447 22,000 984 Climbing New York Center
Wed 03:54:42 PM 40.6039 -75.7678 245° Southwest 393 452 23,000 1,008 Climbing New York Center
Wed 03:55:40 PM 40.5583 -75.9011 246° West 393 452 24,000 1,068 Climbing New York Center
Wed 03:56:40 PM 40.5044 -76.0364 242° Southwest 404 465 25,100 1,041 Climbing New York Center
Wed 03:57:41 PM 40.4519 -76.1850 245° Southwest 410 472 26,100 1,000 Climbing New York Center
Wed 03:59:00 PM 40.3892 -76.3862 241° Southwest  Level FlightAware Approximate
Wed 04:00:40 PM 40.3419 -76.6150 241° Southwest 414 476 29,100  Level New York Center
Wed 04:01:40 PM 40.3467 -76.7678 272° West 414 476 30,100 992 Climbing New York Center
Wed 04:02:41 PM 40.3283 -76.9217 261° West 422 486 31,100 1,109 Climbing New York Center
Wed 04:03:39 PM 40.2894 -77.0678 251° West 427 491 32,300 1,261 Climbing New York Center
Wed 04:04:40 PM 40.2522 -77.2167 252° West 427 491 33,600 1,289 Climbing New York Center
Wed 04:05:40 PM 40.2439 -77.3683 266° West 418 481 34,900 1,347 Climbing New York Center
Wed 04:07:56 PM 40.2544 -77.7319 272° West 424 488 38,000 1,255 Climbing Cleveland Center
Wed 04:08:56 PM 40.2583 -77.8897 272° West 429 494 39,000 950 Climbing Cleveland Center
Wed 04:09:56 PM 40.2575 -78.0311 270° West 440 506 39,900 500 Climbing Cleveland Center
Wed 04:10:56 PM 40.2589 -78.1944 271° West 445 512 40,000 100 Climbing Cleveland Center
Wed 04:11:56 PM 40.2625 -78.3656 272° West 458 527 40,100 300 Climbing Cleveland Center
Wed 04:12:56 PM 40.2636 -78.5369 271° West 465 535 40,600 600 Climbing Cleveland Center
Wed 04:13:56 PM 40.2642 -78.7031 270° West 470 541 41,300 600 Climbing Cleveland Center
Wed 04:14:56 PM 40.2647 -78.8689 270° West 465 535 41,800 450 Climbing Cleveland Center
Wed 04:15:56 PM 40.2650 -79.0350 270° West 460 529 42,200 450 Climbing Cleveland Center
Wed 04:16:56 PM 40.2672 -79.1981 271° West 460 529 42,700 400 Climbing Cleveland Center
Wed 04:17:56 PM 40.2714 -79.3750 272° West 452 520 43,000 150 Climbing Cleveland Center
Wed 04:18:56 PM 40.2731 -79.5408 271° West 452 520 43,000  Level Cleveland Center
Wed 04:19:56 PM 40.2722 -79.7042 270° West 459 528 43,000  Level Cleveland Center
Wed 04:20:56 PM 40.2692 -79.8728 269° West 459 528 43,000  Level Cleveland Center
Wed 04:21:56 PM 40.2681 -80.0472 270° West 464 534 43,000  Level Cleveland Center
Wed 04:22:56 PM 40.2689 -80.2158 270° West 473 544 43,000  Level Cleveland Center
Wed 04:23:56 PM 40.2672 -80.3681 269° West 473 544 43,000  Level Cleveland Center
Wed 04:24:56 PM 40.2694 -80.5314 271° West 473 544 43,000  Level Cleveland Center
Wed 04:25:56 PM 40.2672 -80.7000 269° West 468 539 43,000  Level Cleveland Center
Wed 04:26:56 PM 40.2647 -80.8661 269° West 468 539 43,000  Level Cleveland Center
Wed 04:28:46 PM 40.2597 -81.1847 269° West 465 535 43,000  Level Indianapolis Center
Wed 04:29:48 PM 40.2578 -81.3556 269° West 465 535 43,000  Level Indianapolis Center
Wed 04:30:50 PM 40.2547 -81.5264 269° West 465 535 43,000  Level Indianapolis Center
Wed 04:31:52 PM 40.2519 -81.6956 269° West 462 532 43,000  Level Indianapolis Center
Wed 04:32:55 PM 40.2489 -81.8658 269° West 463 533 43,000  Level Indianapolis Center
Wed 04:33:57 PM 40.2453 -82.0664 269° West 467 537 43,000  Level Indianapolis Center
Wed 04:34:59 PM 40.2417 -82.2386 268° West 467 537 43,000  Level Indianapolis Center
Wed 04:36:01 PM 40.2386 -82.4011 269° West 467 537 43,000  Level Indianapolis Center
Wed 04:37:03 PM 40.2339 -82.5731 268° West 470 541 43,000  Level Indianapolis Center
Wed 04:38:05 PM 40.2294 -82.7456 268° West 472 543 43,000  Level Indianapolis Center
Wed 04:39:07 PM 40.2244 -82.9453 268° West 469 540 43,000  Level Indianapolis Center
Wed 04:40:09 PM 40.2192 -83.1161 268° West 468 539 43,000  Level Indianapolis Center
Wed 04:41:11 PM 40.2142 -83.2875 268° West 470 541 43,000  Level Indianapolis Center
Wed 04:42:13 PM 40.2094 -83.4575 268° West 468 539 43,000  Level Indianapolis Center
Wed 04:43:15 PM 40.2042 -83.6283 268° West 471 542 43,000  Level Indianapolis Center
Wed 04:44:17 PM 40.1983 -83.7975 267° West 467 537 43,000  Level Indianapolis Center
Wed 04:45:19 PM 40.1900 -83.9931 267° West 463 533 43,000  Level Indianapolis Center
Wed 04:46:21 PM 40.1839 -84.1611 267° West 461 531 43,000  Level Indianapolis Center
Wed 04:47:23 PM 40.1767 -84.3286 267° West 461 531 43,000  Level Indianapolis Center
Wed 04:48:25 PM 40.1700 -84.4947 267° West 457 526 43,000  Level Indianapolis Center
Wed 04:49:27 PM 40.1619 -84.6622 266° West 459 528 43,000  Level Indianapolis Center
Wed 04:50:29 PM 40.1553 -84.8303 267° West 459 528 43,000  Level Indianapolis Center
Wed 04:51:32 PM 40.1475 -85.0064 267° West 462 532 43,000  Level Indianapolis Center
Wed 04:52:34 PM 40.1392 -85.1711 266° West 457 526 43,000  Level Indianapolis Center
Wed 04:53:35 PM 40.1303 -85.3681 267° West 455 524 43,000  Level Indianapolis Center
Wed 04:54:37 PM 40.1222 -85.5331 266° West 457 526 43,000  Level Indianapolis Center
Wed 04:55:15 PM 40.1178 -85.6317 267° West 457 526 43,000  Level Indianapolis Center
Wed 04:56:17 PM 40.1075 -85.7969 265° West 460 529 43,000  Level Indianapolis Center
Wed 04:57:19 PM 40.1006 -85.9644 267° West 466 536 43,000  Level Indianapolis Center
Wed 04:58:20 PM 40.0903 -86.1328 265° West 470 541 43,000  Level Indianapolis Center
Wed 04:59:22 PM 40.0794 -86.3333 266° West 469 540 43,000  Level Indianapolis Center
Wed 05:00:24 PM 40.0697 -86.5014 266° West 471 542 43,000  Level Indianapolis Center
Wed 05:01:26 PM 40.0592 -86.6708 265° West 474 545 43,000  Level Indianapolis Center
Wed 05:02:59 PM 40.0422 -86.9433 265° West 474 545 43,000  Level Chicago Center
Wed 05:04:01 PM 40.0308 -87.1119 265° West 471 542 43,000  Level Chicago Center
Wed 05:05:03 PM 40.0211 -87.2806 266° West 470 541 43,000  Level Chicago Center
Wed 05:06:05 PM 40.0094 -87.4508 265° West 473 544 43,000  Level Chicago Center
Wed 05:07:07 PM 39.9953 -87.6550 265° West 472 543 43,000  Level Chicago Center
Wed 05:08:09 PM 39.9828 -87.8250 265° West 473 544 43,000  Level Chicago Center
Wed 05:09:11 PM 39.9717 -87.9933 265° West 471 542 43,000  Level Chicago Center
Wed 05:10:13 PM 39.9589 -88.1750 265° West 473 544 43,000  Level Chicago Center
Wed 05:11:16 PM 39.9458 -88.3458 264° West 473 544 43,000  Level Chicago Center
Wed 05:11:47 PM 39.9381 -88.4481 264° West 473 544 43,000  Level Kansas City Center
Wed 05:12:17 PM 39.9333 -88.5164 265° West 472 543 43,000  Level Chicago Center
Wed 05:13:20 PM 39.9194 -88.6889 264° West 476 548 43,000  Level Chicago Center
Wed 05:14:22 PM 39.9056 -88.8597 264° West 476 548 43,000  Level Chicago Center
Wed 05:15:24 PM 39.8892 -89.0669 264° West 478 550 43,000  Level Chicago Center
Wed 05:15:55 PM 39.8831 -89.1361 263° West 478 550 43,000  Level Kansas City Center
Wed 05:16:57 PM 39.8683 -89.3100 264° West 480 552 43,000  Level Kansas City Center
Wed 05:17:59 PM 39.8536 -89.4819 264° West 479 551 43,000  Level Kansas City Center
Wed 05:19:01 PM 39.8367 -89.6883 264° West 477 549 43,000  Level Kansas City Center
Wed 05:20:03 PM 39.8211 -89.8611 263° West 478 550 43,000  Level Kansas City Center
Wed 05:21:05 PM 39.8053 -90.0344 263° West 480 552 43,000  Level Kansas City Center
Wed 05:22:07 PM 39.7894 -90.2083 263° West 482 555 43,000  Level Kansas City Center
Wed 05:23:09 PM 39.7739 -90.3828 263° West 483 556 43,000  Level Kansas City Center
Wed 05:24:11 PM 39.7586 -90.5575 264° West 484 557 43,000  Level Kansas City Center
Wed 05:25:14 PM 39.7411 -90.7347 263° West 484 557 43,000  Level Kansas City Center
Wed 05:26:16 PM 39.7211 -90.9419 263° West 486 559 43,000  Level Kansas City Center
Wed 05:27:18 PM 39.7036 -91.1156 263° West 486 559 43,000  Level Kansas City Center
Wed 05:28:20 PM 39.6864 -91.2897 263° West 489 563 43,000  Level Kansas City Center
Wed 05:29:22 PM 39.6656 -91.4833 262° West 491 565 43,000  Level Kansas City Center
Wed 05:30:24 PM 39.6489 -91.6578 263° West 492 566 43,000  Level Kansas City Center
Wed 05:31:26 PM 39.6300 -91.8322 262° West 490 564 43,000  Level Kansas City Center
Wed 05:32:28 PM 39.6117 -92.0083 262° West 494 568 43,000  Level Kansas City Center
Wed 05:33:30 PM 39.5961 -92.1856 264° West 495 570 43,000  Level Kansas City Center
Wed 05:34:32 PM 39.6053 -92.3639 274° West 496 571 43,000  Level Kansas City Center
Wed 05:35:34 PM 39.6153 -92.5772 274° West 497 572 43,000  Level Kansas City Center
Wed 05:36:36 PM 39.6236 -92.7561 274° West 498 573 43,000  Level Kansas City Center
Wed 05:37:38 PM 39.6319 -92.9347 274° West 498 573 43,000  Level Kansas City Center
Wed 05:38:40 PM 39.6408 -93.1158 274° West 501 577 43,000  Level Kansas City Center
Wed 05:39:42 PM 39.6481 -93.2969 273° West 504 580 43,000  Level Kansas City Center
Wed 05:40:44 PM 39.6558 -93.5117 273° West 502 578 43,000  Level Kansas City Center
Wed 05:41:46 PM 39.6653 -93.6931 274° West 503 579 43,000  Level Kansas City Center
Wed 05:42:48 PM 39.6717 -93.8714 273° West 505 581 43,000  Level Kansas City Center
Wed 05:43:50 PM 39.6778 -94.0733 272° West 504 580 43,000  Level Kansas City Center
Wed 05:44:52 PM 39.6850 -94.2456 273° West 500 575 43,000  Level Kansas City Center
Wed 05:45:54 PM 39.6922 -94.4483 273° West 504 580 43,000  Level Kansas City Center
Wed 05:46:56 PM 39.6981 -94.6222 273° West 507 583 43,000  Level Kansas City Center
Wed 05:47:58 PM 39.7039 -94.8242 272° West 506 582 43,000  Level Kansas City Center
Wed 05:49:00 PM 39.7092 -94.9978 272° West 505 581 43,000  Level Kansas City Center
Wed 05:50:02 PM 39.7147 -95.2014 272° West 509 586 43,000  Level Kansas City Center
Wed 05:51:04 PM 39.7189 -95.3744 272° West 506 582 43,000  Level Kansas City Center
Wed 05:52:07 PM 39.7242 -95.5786 272° West 509 586 43,000  Level Kansas City Center
Wed 05:53:09 PM 39.7267 -95.7533 271° West 509 586 43,000  Level Kansas City Center
Wed 05:54:11 PM 39.7308 -95.9578 272° West 508 585 43,000  Level Kansas City Center
Wed 05:55:13 PM 39.7336 -96.1322 271° West 508 585 43,000  Level Kansas City Center
Wed 05:56:15 PM 39.7375 -96.3378 271° West 511 588 43,000  Level Kansas City Center
Wed 05:57:17 PM 39.7408 -96.5128 271° West 509 586 43,000  Level Kansas City Center
Wed 05:58:19 PM 39.7442 -96.7181 271° West 509 586 43,000  Level Kansas City Center
Wed 05:59:21 PM 39.7458 -96.9025 271° West 508 585 43,000  Level Kansas City Center
Wed 06:00:23 PM 39.7475 -97.0853 271° West 508 585 43,000  Level Kansas City Center
Wed 06:01:25 PM 39.7519 -97.2781 272° West 507 583 43,000  Level Kansas City Center
Wed 06:02:27 PM 39.7536 -97.4631 271° West 509 586 43,000  Level Kansas City Center
Wed 06:03:25 PM 39.7539 -97.6494 270° West 511 588 43,000  Level Minneapolis Center
Wed 06:04:27 PM 39.7542 -97.8347 270° West 512 589 43,000  Level Minneapolis Center
Wed 06:05:29 PM 39.7547 -98.0206 270° West 512 589 43,000  Level Minneapolis Center
Wed 06:06:31 PM 39.7550 -98.2047 270° West 511 588 43,000  Level Minneapolis Center
Wed 06:07:33 PM 39.7556 -98.3942 270° West 517 595 43,000  Level Minneapolis Center
Wed 06:08:35 PM 39.7542 -98.5792 269° West 514 592 43,000  Level Minneapolis Center
Wed 06:09:37 PM 39.7544 -98.8036 270° West 515 593 43,000  Level Minneapolis Center
Wed 06:10:19 PM 39.7536 -98.9164 269° West 515 593 43,000  Level Denver Center
Wed 06:11:21 PM 39.7525 -99.1036 270° West 516 594 43,000  Level Denver Center
Wed 06:12:22 PM 39.7514 -99.2508 269° West 511 588 43,000  Level Denver Center
Wed 06:13:25 PM 39.7494 -99.4736 269° West 511 588 43,000  Level Denver Center
Wed 06:14:27 PM 39.7472 -99.6969 269° West 514 592 43,000  Level Denver Center
Wed 06:15:29 PM 39.7447 -99.8833 269° West 515 593 43,000  Level Denver Center
Wed 06:16:31 PM 39.7425 -100.0633 269° West 513 590 43,000  Level Denver Center
Wed 06:17:32 PM 39.7400 -100.2119 269° West 515 593 43,000  Level Denver Center
Wed 06:18:35 PM 39.7356 -100.4500 269° West 513 590 43,000  Level Denver Center
Wed 06:19:37 PM 39.7319 -100.6575 269° West 514 592 43,000  Level Denver Center
Wed 06:20:39 PM 39.7281 -100.8358 268° West 515 593 43,000  Level Denver Center
Wed 06:21:41 PM 39.7233 -101.0161 268° West 518 596 43,000  Level Denver Center
Wed 06:22:55 PM 39.7194 -101.2256 269° West 519 597 43,000  Level Denver Center
Wed 06:23:58 PM 39.7117 -101.4619 268° West 515 593 43,000  Level Denver Center
Wed 06:25:00 PM 39.7081 -101.6411 269° West 518 596 43,000  Level Denver Center
Wed 06:26:02 PM 39.7014 -101.8514 268° West 521 600 43,000  Level Denver Center
Wed 06:27:16 PM 39.6964 -102.0306 268° West 518 596 43,000  Level Denver Center
Wed 06:28:18 PM 39.6883 -102.2700 268° West 519 597 43,000  Level Denver Center
Wed 06:29:21 PM 39.6819 -102.4511 267° West 523 602 43,000  Level Denver Center
Wed 06:30:23 PM 39.6747 -102.6631 268° West 525 604 43,000  Level Denver Center
Wed 06:31:25 PM 39.6664 -102.8500 267° West 530 610 43,000  Level Denver Center
Wed 06:32:27 PM 39.6586 -103.0389 267° West 526 605 43,000  Level Denver Center
Wed 06:33:29 PM 39.6514 -103.2292 267° West 528 608 43,000  Level Denver Center
Wed 06:34:31 PM 39.6417 -103.4569 267° West 527 606 43,000 -194 Level Denver Center
Wed 06:35:33 PM 39.6333 -103.6461 267° West 526 605 42,600 -677 Descending Denver Center
Wed 06:36:35 PM 39.6253 -103.8308 267° West 517 595 41,600 -968 Descending Denver Center
Wed 06:37:37 PM 39.6164 -104.0100 266° West 499 574 40,600 -871 Descending Denver Center
Wed 06:38:39 PM 39.6097 -104.1481 266° West 481 554 39,800 -968 Descending Denver Center
Wed 06:39:41 PM 39.5989 -104.3628 266° West 501 577 38,600 -1,210 Descending Denver Center
Wed 06:40:43 PM 39.5875 -104.5806 266° West 496 571 37,300 -1,113 Descending Denver Center
Wed 06:41:45 PM 39.5753 -104.7711 265° West 523 602 36,300 -919 Descending Denver Center
Wed 06:42:47 PM 39.5667 -104.9331 266° West 507 583 35,400 -1,210 Descending Denver Center
Wed 06:43:49 PM 39.5553 -105.1481 266° West 497 572 33,800 -1,790 Descending Denver Center
Wed 06:44:51 PM 39.5422 -105.3347 265° West 515 593 31,700 -2,468 Descending Denver Center
Wed 06:45:53 PM 39.5325 -105.5133 266° West 490 564 28,700 -3,000 Descending Denver Center
Wed 06:46:55 PM 39.5203 -105.6844 265° West 475 547 25,500 -2,226 Descending Denver Center
Wed 06:47:57 PM 39.5106 -105.8306 265° West 400 460 24,100 -1,694 Descending Denver Center
Wed 06:48:59 PM 39.5078 -105.9536 268° West 339 390 22,000 -1,368 Descending Denver Center
Wed 06:50:13 PM 39.5297 -106.0847 282° West 308 354 21,000 -876 Descending Denver Center
Wed 06:51:16 PM 39.5439 -106.1975 279° West 291 335 20,000 -480 Descending Denver Center
Wed 06:52:18 PM 39.5269 -106.3156 259° West 328 377 20,000  Level Denver Center
Wed 06:53:20 PM 39.5094 -106.4322 259° West 330 380 20,000  Level Denver Center
Wed 06:54:22 PM 39.4892 -106.5661 259° West 329 379 20,000 -581 Level Denver Center
Wed 06:55:24 PM 39.4733 -106.6692 259° West 308 354 18,800 -882 Descending Denver Center
Wed 06:56:38 PM 39.4661 -106.7789 265° West 271 312 18,000 -750 Descending Denver Center
Wed 06:57:40 PM 39.5150 -106.8575 309° West 254 292 17,100 -1,065 Descending Denver Center
Wed 06:58:42 PM 39.5450 -106.9314 298° West 281 323 15,800 -629 Descending Denver Center
Wed 06:59:44 PM 39.4803 -106.9917 216° Southwest 281 323 15,800 -387 Level Denver Center
Wed 07:00:46 PM 39.4289 -106.9681 160° South 222 255 15,000 -1,258 Descending Denver Center
Wed 07:01:48 PM 39.3778 -106.9422 159° South 199 229 13,200 -2,177 Descending Denver Center
Wed 07:02:50 PM 39.3239 -106.9169 160° South 204 235 10,500 -2,323 Descending Denver Center
Wed 07:03:52 PM 39.2736 -106.8933 160° South 201 231 8,400 -2,032 Descending Denver Center

Login

Don't have an account? Register now (free) for customized features, flight alerts, and more!